createdAt,value
2023-05-15T00:02:22.950Z,14.96
2023-05-15T00:06:28.095Z,14.98
2023-05-15T00:10:30.858Z,14.96
2023-05-15T00:14:33.559Z,14.93
2023-05-15T00:18:36.560Z,14.92
2023-05-15T00:22:43.204Z,14.83
2023-05-15T00:26:45.969Z,14.81
2023-05-15T00:30:48.749Z,14.74
2023-05-15T00:34:51.485Z,14.73
2023-05-15T00:38:55.703Z,14.67
2023-05-15T00:43:01.601Z,14.60
2023-05-15T00:47:05.443Z,14.59
2023-05-15T00:51:08.529Z,14.55
2023-05-15T00:55:12.732Z,14.56
2023-05-15T00:59:17.110Z,14.54
2023-05-15T01:03:20.029Z,14.48
2023-05-15T01:07:22.899Z,14.44
2023-05-15T01:11:35.785Z,14.39
2023-05-15T01:15:39.703Z,14.36
2023-05-15T01:19:43.504Z,14.36
2023-05-15T01:23:58.659Z,14.06
2023-05-15T01:28:06.687Z,13.79
2023-05-15T01:32:13.970Z,13.69
2023-05-15T01:36:23.272Z,13.58
2023-05-15T01:40:29.284Z,13.49
2023-05-15T01:44:37.041Z,13.27
2023-05-15T01:48:44.547Z,13.15
2023-05-15T01:52:51.632Z,13.06
2023-05-15T01:56:56.774Z,13.04
2023-05-15T02:01:02.344Z,13.04
2023-05-15T02:05:06.391Z,12.91
2023-05-15T02:09:10.872Z,12.93
2023-05-15T02:13:14.618Z,12.99
2023-05-15T02:17:18.983Z,12.96
2023-05-15T02:21:21.921Z,12.90
2023-05-15T02:25:35.746Z,12.84
2023-05-15T02:29:48.685Z,12.84
2023-05-15T02:34:00.319Z,12.84
2023-05-15T02:38:09.502Z,12.72
2023-05-15T02:42:13.804Z,12.60
2023-05-15T02:46:17.695Z,12.60
2023-05-15T02:50:22.274Z,12.60
2023-05-15T02:54:25.320Z,12.57
2023-05-15T02:58:28.103Z,12.58
2023-05-15T03:02:30.845Z,12.55
2023-05-15T03:06:35.001Z,12.39
2023-05-15T03:10:37.760Z,12.25
2023-05-15T03:14:40.467Z,12.13
2023-05-15T03:18:43.247Z,12.03
2023-05-15T03:22:47.466Z,12.03
2023-05-15T03:26:50.240Z,12.08
2023-05-15T03:30:53.345Z,12.06
2023-05-15T03:34:56.333Z,11.93
2023-05-15T03:39:00.530Z,12.05
2023-05-15T03:43:03.366Z,12.17
2023-05-15T03:47:06.456Z,12.16
2023-05-15T03:51:09.297Z,12.11
2023-05-15T03:55:13.390Z,12.14
2023-05-15T03:59:16.521Z,12.13
2023-05-15T04:03:19.999Z,12.23
2023-05-15T04:07:22.753Z,12.27
2023-05-15T04:11:28.509Z,12.24
2023-05-15T04:15:31.515Z,12.09
2023-05-15T04:19:34.279Z,12.15
2023-05-15T04:23:36.992Z,12.27
2023-05-15T04:27:41.452Z,12.32
2023-05-15T04:31:44.689Z,12.41
2023-05-15T04:35:48.121Z,12.37
2023-05-15T04:39:50.858Z,12.24
2023-05-15T04:43:55.063Z,12.18
2023-05-15T04:47:57.857Z,12.18
2023-05-15T04:52:01.518Z,12.17
2023-05-15T04:56:04.397Z,12.27
2023-05-15T05:00:12.398Z,12.28
2023-05-15T05:04:19.347Z,12.25
2023-05-15T05:08:22.136Z,12.23
2023-05-15T05:12:26.011Z,12.29
2023-05-15T05:16:31.987Z,12.27
2023-05-15T05:20:34.935Z,12.25
2023-05-15T05:24:38.055Z,12.35
2023-05-15T05:28:40.865Z,12.36
2023-05-15T05:32:44.967Z,12.29
2023-05-15T05:36:47.730Z,12.29
2023-05-15T05:40:51.050Z,12.33
2023-05-15T05:44:53.760Z,12.33
2023-05-15T05:48:58.092Z,12.34
2023-05-15T05:53:01.005Z,12.38
2023-05-15T05:57:03.879Z,12.50
2023-05-15T06:01:07.026Z,12.43
2023-05-15T06:05:11.524Z,12.44
2023-05-15T06:09:14.264Z,12.27
2023-05-15T06:13:17.449Z,12.09
2023-05-15T06:17:20.797Z,11.99
2023-05-15T06:21:24.894Z,12.03
2023-05-15T06:25:27.658Z,12.10
2023-05-15T06:29:31.314Z,12.04
2023-05-15T06:33:34.042Z,12.02
2023-05-15T06:37:38.609Z,12.02
2023-05-15T06:41:41.282Z,11.89
2023-05-15T06:45:48.305Z,11.69
2023-05-15T06:49:51.015Z,11.63
2023-05-15T06:53:55.129Z,11.70
2023-05-15T06:57:58.097Z,11.71
2023-05-15T07:02:01.343Z,11.64
2023-05-15T07:06:05.396Z,11.62
2023-05-15T07:10:10.833Z,11.70
2023-05-15T07:14:13.873Z,11.73
2023-05-15T07:18:17.954Z,11.67
2023-05-15T07:22:20.837Z,11.63
2023-05-15T07:26:34.348Z,11.67
2023-05-15T07:30:39.330Z,11.69
2023-05-15T07:34:42.857Z,11.71
2023-05-15T07:38:45.648Z,11.89
2023-05-15T07:42:49.750Z,12.07
2023-05-15T07:46:52.520Z,12.34
2023-05-15T07:50:57.150Z,12.60
2023-05-15T07:55:00.716Z,12.74
2023-05-15T07:59:04.847Z,13.12
2023-05-15T08:03:07.931Z,13.37
2023-05-15T08:07:11.229Z,13.82
2023-05-15T08:11:14.332Z,14.15
2023-05-15T08:15:19.493Z,14.66
2023-05-15T08:19:24.041Z,15.05
2023-05-15T08:23:27.605Z,15.36
2023-05-15T08:27:30.914Z,15.88
2023-05-15T08:31:36.511Z,16.37
2023-05-15T08:35:39.723Z,16.88
2023-05-15T08:39:42.594Z,17.14
2023-05-15T08:43:46.120Z,17.19
2023-05-15T08:47:50.756Z,17.60
2023-05-15T08:51:54.632Z,17.77
2023-05-15T08:55:58.990Z,17.88
2023-05-15T09:00:02.733Z,18.26
2023-05-15T09:04:07.570Z,18.58
2023-05-15T09:08:11.257Z,18.67
2023-05-15T09:12:16.454Z,18.94
2023-05-15T09:16:21.113Z,19.08
2023-05-15T09:20:30.672Z,19.14
2023-05-15T09:24:36.582Z,19.46
2023-05-15T09:28:39.503Z,19.70
2023-05-15T09:32:42.664Z,19.60
2023-05-15T09:36:47.621Z,19.67
2023-05-15T09:40:50.527Z,19.83
2023-05-15T09:44:53.534Z,20.23
2023-05-15T09:48:56.733Z,20.22
2023-05-15T09:53:01.979Z,20.49
2023-05-15T09:57:09.509Z,20.56
2023-05-15T10:01:13.251Z,20.87
2023-05-15T10:05:17.582Z,20.83
2023-05-15T10:09:24.873Z,20.91
2023-05-15T10:13:28.879Z,21.21
2023-05-15T10:17:35.433Z,21.64
2023-05-15T10:21:39.589Z,21.80
2023-05-15T10:25:50.372Z,21.75
2023-05-15T10:29:54.079Z,22.08
2023-05-15T10:33:57.819Z,22.60
2023-05-15T10:38:02.089Z,22.86
2023-05-15T10:42:07.767Z,22.94
2023-05-15T10:46:12.583Z,22.69
2023-05-15T10:50:17.007Z,22.65
2023-05-15T10:54:20.426Z,23.02
2023-05-15T10:58:25.514Z,23.37
2023-05-15T11:02:31.419Z,23.24
2023-05-15T11:06:34.984Z,23.21
2023-05-15T11:10:38.915Z,23.51
2023-05-15T11:14:44.394Z,23.61
2023-05-15T11:18:47.313Z,23.81
2023-05-15T11:22:59.648Z,23.77
2023-05-15T11:27:05.620Z,23.65
2023-05-15T11:31:10.206Z,23.71
2023-05-15T11:35:13.843Z,23.61
2023-05-15T11:39:18.060Z,23.99
2023-05-15T11:43:22.656Z,24.05
2023-05-15T11:47:30.175Z,24.00
2023-05-15T11:51:35.451Z,23.93
2023-05-15T11:55:40.229Z,23.96
2023-05-15T11:59:45.460Z,24.11
2023-05-15T12:03:50.385Z,24.55
2023-05-15T12:07:53.424Z,24.54
2023-05-15T12:11:57.025Z,23.86
2023-05-15T12:16:00.536Z,23.27
2023-05-15T12:20:06.885Z,22.92
2023-05-15T12:24:12.638Z,22.81
2023-05-15T12:28:16.085Z,22.90
2023-05-15T12:32:19.318Z,22.77
2023-05-15T12:36:23.760Z,22.45
2023-05-15T12:40:26.968Z,22.22
2023-05-15T12:44:30.189Z,21.98
2023-05-15T12:48:33.569Z,22.13
2023-05-15T12:52:37.730Z,21.97
2023-05-15T12:56:41.687Z,22.18
2023-05-15T13:00:46.045Z,21.95
2023-05-15T13:04:48.900Z,22.08
2023-05-15T13:08:55.777Z,22.50
2023-05-15T13:12:59.151Z,22.92
2023-05-15T13:17:03.579Z,22.96
2023-05-15T13:21:06.535Z,23.04
2023-05-15T13:25:11.208Z,22.57
2023-05-15T13:29:13.999Z,22.32
2023-05-15T13:33:16.926Z,22.41
2023-05-15T13:37:19.742Z,22.72
2023-05-15T13:41:23.928Z,22.87
2023-05-15T13:45:26.665Z,23.06
2023-05-15T13:49:30.122Z,23.30
2023-05-15T13:53:32.898Z,23.00
2023-05-15T13:57:37.264Z,22.82
2023-05-15T14:01:39.965Z,22.59
2023-05-15T14:05:42.789Z,22.57
2023-05-15T14:09:46.089Z,22.36
2023-05-15T14:13:50.148Z,22.27
2023-05-15T14:17:55.437Z,21.83
2023-05-15T14:21:58.760Z,21.80
2023-05-15T14:26:01.491Z,21.90
2023-05-15T14:30:06.851Z,21.69
2023-05-15T14:34:09.967Z,21.65
2023-05-15T14:38:12.871Z,21.91
2023-05-15T14:42:17.096Z,21.97
2023-05-15T14:46:21.255Z,22.00
2023-05-15T14:50:24.191Z,21.98
2023-05-15T14:54:27.059Z,21.57
2023-05-15T14:58:30.659Z,21.32
2023-05-15T15:02:35.002Z,21.07
2023-05-15T15:06:37.808Z,20.99
2023-05-15T15:10:43.347Z,20.64
2023-05-15T15:14:46.123Z,20.63
2023-05-15T15:18:50.498Z,20.44
2023-05-15T15:22:53.925Z,20.38
2023-05-15T15:26:56.767Z,20.29
2023-05-15T15:30:59.527Z,20.48
2023-05-15T15:35:04.405Z,20.31
2023-05-15T15:39:07.141Z,19.93
2023-05-15T15:43:10.017Z,19.88
2023-05-15T15:47:12.786Z,19.83
2023-05-15T15:51:16.947Z,19.60
2023-05-15T15:55:19.901Z,19.08
2023-05-15T15:59:22.735Z,18.80
2023-05-15T16:03:25.534Z,18.83
2023-05-15T16:07:29.713Z,18.50
2023-05-15T16:11:32.468Z,18.37
2023-05-15T16:15:35.184Z,18.46
2023-05-15T16:19:37.939Z,18.39
2023-05-15T16:23:42.240Z,18.39
2023-05-15T16:27:44.935Z,18.45
2023-05-15T16:31:47.828Z,18.23
2023-05-15T16:35:50.903Z,18.14
2023-05-15T16:39:55.078Z,18.18
2023-05-15T16:43:57.820Z,18.39
2023-05-15T16:48:00.581Z,18.32
2023-05-15T16:52:03.336Z,17.95
2023-05-15T16:56:08.306Z,17.70
2023-05-15T17:00:12.944Z,17.55
2023-05-15T17:04:15.649Z,17.34
2023-05-15T17:08:18.385Z,17.29
2023-05-15T17:12:22.590Z,17.27
2023-05-15T17:16:25.325Z,17.30
2023-05-15T17:20:28.649Z,17.16
2023-05-15T17:24:46.387Z,16.92
2023-05-15T17:28:53.897Z,16.86
2023-05-15T17:32:56.829Z,16.81
2023-05-15T17:36:59.665Z,16.83
2023-05-15T17:41:02.596Z,16.79
2023-05-15T17:45:07.887Z,16.69
2023-05-15T17:49:11.752Z,16.69
2023-05-15T17:53:15.185Z,16.64
2023-05-15T17:57:17.948Z,16.62
2023-05-15T18:01:22.132Z,16.45
2023-05-15T18:05:25.122Z,16.14
2023-05-15T18:09:28.101Z,15.94
2023-05-15T18:13:30.931Z,15.71
2023-05-15T18:17:35.017Z,15.65
2023-05-15T18:21:38.132Z,15.54
2023-05-15T18:25:41.071Z,15.51
2023-05-15T18:29:45.533Z,15.48
2023-05-15T18:33:49.804Z,15.51
2023-05-15T18:37:52.513Z,15.45
2023-05-15T18:41:55.564Z,15.34
2023-05-15T18:45:58.247Z,15.14
2023-05-15T18:50:02.609Z,15.00
2023-05-15T18:54:05.365Z,14.98
2023-05-15T18:58:08.639Z,14.84
2023-05-15T19:02:11.578Z,14.82
2023-05-15T19:06:19.715Z,14.72
2023-05-15T19:10:22.677Z,14.64
2023-05-15T19:14:25.591Z,14.54
2023-05-15T19:18:28.727Z,14.50
2023-05-15T19:22:34.177Z,14.47
2023-05-15T19:26:37.377Z,14.36
2023-05-15T19:30:40.108Z,14.41
2023-05-15T19:34:43.034Z,14.32
2023-05-15T19:38:47.883Z,14.35
2023-05-15T19:42:53.374Z,14.21
2023-05-15T19:46:56.142Z,14.16
2023-05-15T19:50:58.993Z,14.01
2023-05-15T19:55:03.701Z,14.02
2023-05-15T19:59:06.477Z,14.07
2023-05-15T20:03:09.501Z,14.02
2023-05-15T20:07:12.860Z,13.99
2023-05-15T20:11:17.558Z,14.02
2023-05-15T20:15:20.460Z,14.07
2023-05-15T20:19:24.729Z,13.92
2023-05-15T20:23:27.919Z,13.93
2023-05-15T20:27:32.125Z,13.80
2023-05-15T20:31:34.953Z,13.74
2023-05-15T20:35:38.748Z,13.69
2023-05-15T20:39:41.491Z,13.66
2023-05-15T20:43:45.622Z,13.58
2023-05-15T20:47:49.475Z,13.58
2023-05-15T20:51:52.466Z,13.57
2023-05-15T20:55:55.350Z,13.68
2023-05-15T20:59:59.556Z,13.53
2023-05-15T21:04:02.437Z,13.43
2023-05-15T21:08:05.649Z,13.33
2023-05-15T21:12:08.939Z,13.44
2023-05-15T21:16:13.033Z,13.38
2023-05-15T21:20:15.892Z,13.17
2023-05-15T21:24:18.887Z,13.10
2023-05-15T21:28:21.729Z,13.05
2023-05-15T21:32:25.866Z,13.08
2023-05-15T21:36:28.606Z,12.97
2023-05-15T21:40:31.271Z,12.84
2023-05-15T21:44:34.004Z,12.73
2023-05-15T21:48:38.059Z,12.65
2023-05-15T21:52:40.942Z,12.58
2023-05-15T21:56:43.721Z,12.40
2023-05-15T22:00:46.528Z,12.26
2023-05-15T22:04:50.704Z,12.06
2023-05-15T22:08:53.590Z,12.14
2023-05-15T22:12:59.011Z,12.14
2023-05-15T22:17:02.138Z,12.17
2023-05-15T22:21:08.569Z,12.20
2023-05-15T22:25:11.768Z,12.07
2023-05-15T22:29:14.532Z,12.06
2023-05-15T22:33:17.297Z,11.86
2023-05-15T22:37:21.850Z,11.79
2023-05-15T22:41:24.728Z,11.83
2023-05-15T22:45:27.481Z,11.80
2023-05-15T22:49:30.480Z,11.83
2023-05-15T22:53:37.068Z,11.72
2023-05-15T22:57:40.570Z,11.75
2023-05-15T23:01:43.838Z,11.64
2023-05-15T23:05:46.761Z,11.54
2023-05-15T23:09:50.936Z,11.63
2023-05-15T23:13:53.675Z,11.58
2023-05-15T23:17:56.672Z,11.50
2023-05-15T23:21:59.402Z,11.36
2023-05-15T23:26:03.501Z,11.32
2023-05-15T23:30:07.374Z,11.21
2023-05-15T23:34:10.153Z,11.09
2023-05-15T23:38:12.982Z,10.88
2023-05-15T23:42:17.088Z,10.64
2023-05-15T23:46:19.914Z,10.46
2023-05-15T23:50:23.086Z,10.56
2023-05-15T23:54:25.960Z,10.60
2023-05-15T23:58:30.006Z,10.71
